Time;durP1;ratioP1;P1;durP2;ratioP2;P2;SDS_P1;SDS_P2;PMS_P1;PMS_P2;Temp;Humidity;BMP_temperature;BMP_pressure;BME280_temperature;BME280_humidity;BME280_pressure;Samples;Min_cycle;Max_cycle;Signal;HPM_P1;HPM_P2
2021/05/11 00:01:46;;;;;;;5.10;3.20;;;12.50;49.10;;;;;;5137929;27;20027;-39
2021/05/11 00:04:12;;;;;;;5.90;3.53;;;12.50;49.40;;;;;;5137723;27;20027;-40
2021/05/11 00:06:38;;;;;;;11.23;3.38;;;12.50;49.60;;;;;;5138170;27;20015;-40
2021/05/11 00:09:05;;;;;;;5.13;3.30;;;12.50;49.90;;;;;;5137504;27;20020;-40
2021/05/11 00:11:31;;;;;;;11.20;3.15;;;12.60;50.20;;;;;;5138169;27;20059;-40
2021/05/11 00:13:57;;;;;;;8.82;3.78;;;12.60;50.40;;;;;;5137520;27;20031;-40
2021/05/11 00:16:22;;;;;;;5.13;3.13;;;12.60;50.60;;;;;;5138181;27;20465;-40
2021/05/11 00:18:48;;;;;;;5.90;2.88;;;12.60;50.50;;;;;;5137587;27;20379;-40
2021/05/11 00:21:14;;;;;;;6.20;2.88;;;12.60;50.60;;;;;;5137847;27;20031;-39
2021/05/11 00:23:39;;;;;;;5.53;3.08;;;12.60;50.60;;;;;;5136951;27;20058;-39
2021/05/11 00:26:05;;;;;;;7.40;2.90;;;12.70;50.60;;;;;;5137741;27;20048;-40
2021/05/11 00:28:31;;;;;;;4.80;2.95;;;12.70;50.40;;;;;;5137141;27;20027;-40
2021/05/11 00:30:56;;;;;;;4.10;2.95;;;12.70;50.30;;;;;;5137696;27;20034;-40
2021/05/11 00:33:22;;;;;;;9.93;2.80;;;12.80;50.30;;;;;;5137272;27;20122;-40
2021/05/11 00:35:47;;;;;;;5.47;2.67;;;12.80;50.10;;;;;;5137474;27;20047;-40
2021/05/11 00:38:13;;;;;;;5.03;2.97;;;12.80;50.00;;;;;;5137148;27;20076;-40
2021/05/11 00:40:39;;;;;;;10.68;3.15;;;12.90;50.00;;;;;;5137152;27;20314;-40
2021/05/11 00:43:05;;;;;;;6.72;2.65;;;12.90;49.80;;;;;;5137550;27;20024;-40
2021/05/11 00:45:30;;;;;;;3.88;2.80;;;13.00;49.60;;;;;;5136946;27;20180;-40
2021/05/11 00:47:56;;;;;;;5.50;2.60;;;13.00;49.40;;;;;;5137356;27;20030;-40
2021/05/11 00:50:22;;;;;;;4.95;3.40;;;13.00;49.20;;;;;;5136898;27;20031;-40
2021/05/11 00:52:48;;;;;;;4.00;3.10;;;13.10;49.00;;;;;;5136932;27;20106;-41
2021/05/11 00:55:14;;;;;;;5.00;2.75;;;13.10;48.80;;;;;;5136872;27;20038;-40
2021/05/11 00:57:41;;;;;;;5.82;2.83;;;13.10;48.80;;;;;;5137108;27;20046;-40
2021/05/11 01:00:09;;;;;;;8.05;3.30;;;13.20;48.70;;;;;;5136890;27;20031;-39
2021/05/11 01:02:35;;;;;;;6.07;2.78;;;13.20;48.50;;;;;;5136680;27;20118;-40
2021/05/11 01:05:00;;;;;;;5.07;2.70;;;13.20;48.40;;;;;;5136573;27;20031;-40
2021/05/11 01:07:26;;;;;;;5.68;2.83;;;13.20;48.40;;;;;;5137070;27;20027;-39
2021/05/11 01:09:53;;;;;;;4.35;2.90;;;13.20;48.30;;;;;;5136531;27;20031;-41
2021/05/11 01:12:18;;;;;;;4.90;2.63;;;13.20;48.30;;;;;;5136719;27;20019;-40
2021/05/11 01:14:46;;;;;;;4.90;2.90;;;13.20;48.10;;;;;;5136798;27;20057;-40
2021/05/11 01:17:17;;;;;;;5.15;2.97;;;13.20;48.10;;;;;;5136914;27;20042;-40
2021/05/11 01:24:46;;;;;;;3.67;2.60;;;13.10;48.00;;;;;;5136455;28;20042;-39
2021/05/11 02:23:10;;;;;;;3.75;2.80;;;13.20;46.90;;;;;;5140226;27;20038;-39
2021/05/11 02:25:35;;;;;;;3.75;2.47;;;13.20;46.50;;;;;;5139790;27;20027;-40
2021/05/11 02:28:01;;;;;;;3.65;2.63;;;13.20;46.50;;;;;;5140016;27;20055;-40
2021/05/11 02:30:27;;;;;;;5.90;3.15;;;13.20;46.40;;;;;;5139572;27;20399;-40
2021/05/11 02:32:53;;;;;;;5.00;2.83;;;13.20;46.00;;;;;;5139904;27;20023;-39
2021/05/11 02:35:19;;;;;;;6.95;2.67;;;13.20;46.10;;;;;;5139620;27;20387;-39
2021/05/11 02:37:46;;;;;;;5.20;3.10;;;13.20;46.20;;;;;;5139346;27;20055;-40
2021/05/11 02:40:13;;;;;;;6.57;3.60;;;13.20;46.10;;;;;;5139346;27;20068;-40
2021/05/11 02:42:40;;;;;;;6.15;3.13;;;13.20;46.20;;;;;;5139685;27;20062;-39
2021/05/11 02:45:10;;;;;;;6.75;2.90;;;13.20;46.40;;;;;;5139164;27;20080;-40
2021/05/11 02:47:47;;;;;;;6.80;2.70;;;13.20;46.60;;;;;;5139679;27;20098;-39
2021/05/11 02:50:16;;;;;;;4.45;3.00;;;13.10;46.70;;;;;;5139397;27;20028;-40
2021/05/11 02:52:42;;;;;;;4.30;3.00;;;13.20;46.70;;;;;;5139458;27;20038;-40
2021/05/11 02:55:08;;;;;;;4.65;3.05;;;13.20;46.70;;;;;;5139240;27;20394;-40
2021/05/11 02:57:33;;;;;;;10.35;3.05;;;13.20;46.70;;;;;;5139113;27;20034;-39
2021/05/11 02:59:59;;;;;;;7.22;2.95;;;13.20;46.90;;;;;;5139166;27;20329;-39
2021/05/11 03:02:26;;;;;;;5.07;3.08;;;13.20;46.90;;;;;;5137695;27;20038;-39
2021/05/11 03:04:52;;;;;;;7.53;3.08;;;13.20;46.80;;;;;;5138667;27;20037;-40
2021/05/11 03:07:18;;;;;;;6.68;3.10;;;13.20;46.90;;;;;;5139652;27;20035;-40
2021/05/11 03:09:43;;;;;;;9.30;3.10;;;13.20;47.00;;;;;;5138771;27;20030;-40
2021/05/11 03:12:09;;;;;;;6.15;3.00;;;13.20;47.10;;;;;;5138829;27;20399;-40
2021/05/11 03:14:35;;;;;;;5.13;2.90;;;13.20;47.20;;;;;;5138595;27;20033;-40
2021/05/11 03:17:01;;;;;;;4.85;2.60;;;13.30;47.30;;;;;;5138882;27;20035;-40
2021/05/11 03:19:26;;;;;;;5.43;3.17;;;13.30;47.20;;;;;;5138370;27;20024;-40
2021/05/11 03:21:52;;;;;;;6.15;2.55;;;13.30;47.20;;;;;;5138782;27;20039;-40
2021/05/11 03:24:17;;;;;;;3.95;2.70;;;13.30;47.30;;;;;;5138254;27;20027;-41
2021/05/11 03:26:43;;;;;;;5.55;2.90;;;13.30;47.30;;;;;;5138614;27;20077;-40
2021/05/11 03:29:09;;;;;;;5.15;2.80;;;13.30;47.30;;;;;;5138299;27;20030;-40
2021/05/11 03:31:34;;;;;;;11.05;2.88;;;13.40;47.30;;;;;;5139008;27;20034;-40
2021/05/11 03:34:00;;;;;;;5.88;3.28;;;13.40;47.40;;;;;;5138376;27;20043;-41
2021/05/11 03:36:26;;;;;;;8.70;3.20;;;13.40;47.40;;;;;;5138649;27;20453;-40
2021/05/11 03:38:53;;;;;;;5.47;3.00;;;13.50;47.40;;;;;;5138109;27;20043;-40
2021/05/11 03:41:23;;;;;;;6.75;2.75;;;13.50;47.50;;;;;;5138785;27;20038;-40
2021/05/11 03:43:56;;;;;;;8.40;3.00;;;13.60;47.50;;;;;;5138044;27;20418;-40
2021/05/11 03:46:22;;;;;;;7.93;2.97;;;13.60;47.50;;;;;;5138621;27;20051;-40
2021/05/11 03:48:47;;;;;;;3.72;2.55;;;13.70;47.70;;;;;;5138018;27;20326;-40
2021/05/11 03:51:15;;;;;;;6.57;2.65;;;13.60;47.50;;;;;;5138077;27;20062;-39
2021/05/11 03:53:40;;;;;;;5.10;2.53;;;13.70;47.70;;;;;;5137544;27;20495;-40
2021/05/11 03:56:06;;;;;;;6.10;3.03;;;13.70;47.60;;;;;;5138044;27;20023;-40
2021/05/11 03:58:32;;;;;;;8.98;3.17;;;13.80;47.50;;;;;;5137796;27;20027;-39
2021/05/11 04:00:58;;;;;;;8.50;2.90;;;13.80;47.50;;;;;;5137776;27;20033;-40
2021/05/11 04:03:23;;;;;;;4.07;2.80;;;13.90;47.40;;;;;;5137883;27;20019;-39
2021/05/11 04:05:51;;;;;;;6.95;3.20;;;13.90;47.50;;;;;;5138103;27;20062;-40
2021/05/11 04:08:34;;;;;;;4.70;2.70;;;13.90;47.30;;;;;;5119553;27;20084;-40
2021/05/11 04:16:32;;;;;;;4.00;2.60;;;14.00;46.90;;;;;;5138429;27;20080;-40
2021/05/11 04:18:57;;;;;;;3.95;2.60;;;14.10;46.80;;;;;;5137249;27;20027;-40
2021/05/11 04:21:24;;;;;;;4.07;2.78;;;14.00;46.60;;;;;;5137983;27;20083;-40
2021/05/11 04:23:51;;;;;;;4.10;2.85;;;14.10;46.70;;;;;;5137129;27;20033;-40
2021/05/11 04:26:17;;;;;;;3.83;2.75;;;14.20;46.50;;;;;;5137695;27;20027;-40
2021/05/11 04:28:45;;;;;;;4.88;2.80;;;14.20;46.40;;;;;;5137037;27;20031;-41
2021/05/11 04:31:11;;;;;;;9.75;2.90;;;14.20;46.30;;;;;;5137685;27;20027;-40
2021/05/11 04:33:37;;;;;;;8.48;3.03;;;14.20;46.10;;;;;;5136897;27;20357;-40
2021/05/11 04:36:03;;;;;;;13.88;2.78;;;14.30;46.30;;;;;;5137375;27;20019;-40
2021/05/11 04:38:29;;;;;;;3.88;2.60;;;14.30;46.10;;;;;;5137289;27;20073;-40
2021/05/11 04:40:55;;;;;;;17.55;3.70;;;14.30;46.00;;;;;;5137413;27;20404;-40
2021/05/11 04:43:26;;;;;;;4.75;3.47;;;14.30;46.00;;;;;;5136913;27;20031;-40
2021/05/11 04:46:04;;;;;;;4.38;2.78;;;14.40;45.70;;;;;;5136814;27;20042;-39
2021/05/11 04:48:30;;;;;;;5.57;3.08;;;14.40;45.90;;;;;;5137106;27;20043;-40
2021/05/11 04:50:57;;;;;;;4.78;2.88;;;14.40;45.80;;;;;;5137343;27;20027;-40
2021/05/11 04:53:23;;;;;;;4.82;2.70;;;14.40;45.70;;;;;;5137027;27;20020;-40
2021/05/11 04:55:49;;;;;;;5.70;2.47;;;14.40;45.90;;;;;;5137220;27;20355;-40
2021/05/11 04:58:15;;;;;;;5.30;2.60;;;14.40;45.90;;;;;;5136722;27;20061;-40
2021/05/11 05:00:41;;;;;;;13.93;4.38;;;14.50;46.10;;;;;;5136840;27;20031;-40
2021/05/11 05:03:07;;;;;;;4.38;2.40;;;14.60;46.30;;;;;;5136942;27;20080;-41
2021/05/11 05:05:33;;;;;;;6.38;2.60;;;14.60;46.30;;;;;;5136373;27;20039;-40
2021/05/11 05:07:59;;;;;;;7.88;4.15;;;14.70;46.60;;;;;;5136819;27;20424;-40
2021/05/11 05:10:24;;;;;;;5.28;2.97;;;14.70;46.40;;;;;;5136693;27;20046;-40
2021/05/11 05:12:50;;;;;;;4.75;2.70;;;14.70;46.40;;;;;;5133136;27;20425;-39
2021/05/11 05:15:16;;;;;;;18.00;3.17;;;14.80;46.60;;;;;;5136462;27;20091;-39
2021/05/11 05:17:42;;;;;;;6.65;2.78;;;14.80;46.70;;;;;;5136598;27;20352;-41
2021/05/11 05:20:08;;;;;;;5.00;2.28;;;14.80;46.80;;;;;;5136271;28;20402;-39
2021/05/11 05:22:35;;;;;;;4.93;2.80;;;14.90;47.10;;;;;;5136297;28;20084;-39
2021/05/11 05:25:09;;;;;;;4.72;2.85;;;14.90;47.30;;;;;;5136347;27;20031;-39
2021/05/11 05:28:17;;;;;;;9.73;3.30;;;14.90;47.70;;;;;;5138941;27;20120;-39
2021/05/11 05:30:24;;;;;;;3.80;2.40;;;15.00;48.00;;;;;;5126645;27;20032;-39
2021/05/11 05:32:53;;;;;;;3.92;2.70;;;15.00;48.30;;;;;;5140009;27;20042;-40
2021/05/11 05:35:19;;;;;;;4.57;2.50;;;15.10;48.50;;;;;;5140184;27;20084;-40
2021/05/11 05:37:45;;;;;;;3.95;2.30;;;15.10;48.30;;;;;;5140120;27;20075;-39
2021/05/11 05:40:12;;;;;;;3.67;2.30;;;15.20;48.30;;;;;;5140062;27;20027;-39
2021/05/11 05:42:38;;;;;;;4.80;2.38;;;15.20;48.20;;;;;;5139951;27;20065;-39
2021/05/11 05:45:05;;;;;;;7.40;2.60;;;15.30;48.20;;;;;;5139995;27;20031;-39
2021/05/11 05:47:30;;;;;;;3.50;2.20;;;15.40;48.40;;;;;;5139901;27;20436;-39
2021/05/11 05:50:04;;;;;;;7.75;2.88;;;15.50;48.40;;;;;;5139952;27;20054;-39
2021/05/11 05:52:38;;;;;;;4.28;1.88;;;15.50;48.20;;;;;;5139925;27;20480;-39
2021/05/11 05:55:05;;;;;;;7.80;2.60;;;15.60;48.20;;;;;;5140134;27;20055;-40
2021/05/11 05:57:31;;;;;;;2.55;2.20;;;15.60;48.20;;;;;;5139754;27;20039;-39
2021/05/11 05:59:57;;;;;;;3.22;2.10;;;15.70;48.10;;;;;;5139910;27;20394;-39
2021/05/11 06:02:23;;;;;;;2.67;2.40;;;15.80;48.10;;;;;;5139943;27;20043;-41
2021/05/11 06:04:49;;;;;;;4.03;2.35;;;15.80;48.10;;;;;;5139811;27;20027;-39
2021/05/11 06:07:15;;;;;;;3.58;2.50;;;15.90;48.00;;;;;;5139947;27;20275;-39
2021/05/11 06:09:41;;;;;;;4.07;2.67;;;16.00;48.00;;;;;;5139504;27;20111;-39
2021/05/11 06:12:12;;;;;;;6.38;2.80;;;16.10;47.90;;;;;;5139737;27;20406;-39
2021/05/11 06:17:22;;;;;;;7.13;2.35;;;16.10;47.30;;;;;;5139560;27;20092;-39
2021/05/11 06:19:51;;;;;;;5.95;2.20;;;16.20;47.40;;;;;;5139420;27;20031;-39
2021/05/11 06:22:17;;;;;;;3.80;2.28;;;16.20;46.90;;;;;;5139442;27;20039;-39
2021/05/11 06:24:43;;;;;;;4.25;2.30;;;16.30;46.90;;;;;;5137364;27;20083;-40
2021/05/11 06:27:11;;;;;;;6.90;3.28;;;16.30;47.50;;;;;;5139376;27;20326;-40
2021/05/11 06:29:39;;;;;;;5.20;2.20;;;16.40;46.90;;;;;;5139206;27;20039;-39
2021/05/11 06:32:09;;;;;;;5.13;2.10;;;16.40;46.90;;;;;;5121018;27;20080;-39
2021/05/11 06:34:35;;;;;;;4.95;2.85;;;16.50;46.70;;;;;;5138709;27;20035;-39
2021/05/11 06:37:01;;;;;;;8.02;2.42;;;16.50;46.50;;;;;;5139079;27;20123;-39
2021/05/11 06:39:27;;;;;;;6.70;2.17;;;16.50;46.20;;;;;;5138774;27;20031;-39
2021/05/11 06:41:57;;;;;;;6.30;2.28;;;16.60;46.20;;;;;;5139486;27;20028;-39
2021/05/11 06:44:52;;;;;;;3.65;2.85;;;16.50;46.30;;;;;;5138240;27;20325;-39
2021/05/11 06:55:18;;;;;;;7.18;2.28;;;16.50;47.00;;;;;;5139205;27;20044;-39
2021/05/11 06:57:44;;;;;;;2.47;2.00;;;16.50;47.30;;;;;;5139172;27;20054;-40
2021/05/11 07:00:11;;;;;;;4.13;2.40;;;16.60;47.60;;;;;;5138603;27;20127;-39
2021/05/11 07:02:36;;;;;;;2.88;2.10;;;16.70;47.80;;;;;;5139155;27;20360;-39
2021/05/11 07:05:03;;;;;;;7.60;2.40;;;16.70;48.00;;;;;;5138504;27;20031;-40
2021/05/11 07:07:31;;;;;;;3.50;2.22;;;16.70;47.60;;;;;;5138835;27;20383;-41
2021/05/11 07:15:24;;;;;;;2.88;1.85;;;16.90;48.20;;;;;;5138834;27;20046;-40
2021/05/11 07:17:50;;;;;;;9.25;2.00;;;16.90;48.70;;;;;;5138686;27;20027;-40
2021/05/11 07:20:16;;;;;;;2.55;1.80;;;17.00;49.10;;;;;;5138368;27;20038;-39
2021/05/11 07:22:42;;;;;;;10.05;2.10;;;17.10;49.60;;;;;;5138639;27;20118;-43
2021/05/11 07:25:11;;;;;;;6.88;1.88;;;17.20;49.60;;;;;;5133175;27;20088;-39
2021/05/11 07:27:51;;;;;;;6.88;2.00;;;17.30;50.10;;;;;;5138704;27;20035;-40
2021/05/11 07:30:25;;;;;;;2.85;1.80;;;17.50;50.40;;;;;;5138177;27;20034;-39
2021/05/11 07:32:51;;;;;;;4.57;2.15;;;17.60;50.60;;;;;;5138491;27;20034;-39
2021/05/11 07:35:17;;;;;;;3.72;1.92;;;17.80;50.30;;;;;;5137931;27;20402;-39
2021/05/11 07:37:43;;;;;;;5.35;1.83;;;17.90;50.40;;;;;;5137889;27;20438;-39
2021/05/11 07:40:09;;;;;;;3.80;1.95;;;18.10;50.20;;;;;;5137857;27;20030;-39
2021/05/11 07:42:35;;;;;;;6.25;1.95;;;18.30;49.90;;;;;;5136888;27;20031;-39
2021/05/11 07:45:03;;;;;;;5.05;1.67;;;18.40;49.40;;;;;;5137546;27;20028;-40
2021/05/11 07:50:31;;;;;;;5.00;2.08;;;18.60;48.60;;;;;;5131070;27;20030;-40
2021/05/11 08:14:47;;;;;;;3.90;2.50;;;19.90;47.60;;;;;;5136330;27;20042;-40
2021/05/11 08:17:15;;;;;;;5.20;2.83;;;20.00;47.70;;;;;;5137367;27;20027;-40
2021/05/11 08:20:09;;;;;;;4.45;2.13;;;20.10;47.70;;;;;;5135047;27;20027;-39
2021/05/11 08:28:02;;;;;;;7.20;2.08;;;20.50;46.80;;;;;;5121578;27;20030;-40
2021/05/11 08:30:28;;;;;;;4.05;2.22;;;20.70;46.50;;;;;;5136571;27;20115;-40
2021/05/11 08:32:54;;;;;;;4.03;1.90;;;20.80;46.40;;;;;;5136849;27;20023;-43
2021/05/11 08:35:21;;;;;;;4.50;1.73;;;20.90;46.20;;;;;;5136587;27;20083;-41
2021/05/11 08:37:47;;;;;;;6.47;2.35;;;21.00;46.20;;;;;;5136488;27;20047;-40
2021/05/11 08:40:13;;;;;;;6.32;1.65;;;21.10;46.00;;;;;;5135876;27;20031;-40
2021/05/11 08:42:39;;;;;;;3.67;1.83;;;21.20;46.20;;;;;;5136712;27;20084;-40
2021/05/11 08:45:07;;;;;;;4.43;1.95;;;21.30;45.70;;;;;;5136499;27;20383;-40
2021/05/11 08:47:36;;;;;;;5.28;1.90;;;21.40;45.80;;;;;;5136810;27;20429;-41
2021/05/11 08:50:03;;;;;;;4.15;1.88;;;21.50;44.90;;;;;;5136711;27;20066;-40
2021/05/11 08:53:18;;;;;;;8.57;1.92;;;21.60;45.00;;;;;;5136901;27;20122;-40
2021/05/11 09:24:55;;;;;;;5.82;1.75;;;21.90;43.70;;;;;;5052672;28;20037;-39
2021/05/11 09:27:34;;;;;;;6.40;1.65;;;22.00;43.80;;;;;;5053167;28;20032;-39
2021/05/11 09:30:23;;;;;;;3.92;2.10;;;21.90;43.50;;;;;;5112208;28;20039;-39
2021/05/11 09:52:26;;;;;;;7.25;2.25;;;22.10;44.20;;;;;;5136305;28;20390;-42
2021/05/11 09:57:59;;;;;;;7.20;1.63;;;22.30;44.30;;;;;;5052873;28;20021;-41
2021/05/11 10:43:48;;;;;;;5.45;2.70;;;23.40;41.50;;;;;;5138331;27;20677;-40
2021/05/11 10:48:35;;;;;;;4.53;2.67;;;23.50;42.40;;;;;;5139560;27;20149;-40
2021/05/11 10:51:02;;;;;;;8.77;3.17;;;23.70;41.40;;;;;;5138784;27;20034;-40
2021/05/11 10:53:46;;;;;;;8.48;2.03;;;23.80;41.60;;;;;;5138404;27;20042;-41
2021/05/11 10:56:42;;;;;;;6.97;1.85;;;23.90;40.30;;;;;;5138899;27;20363;-40
2021/05/11 11:02:02;;;;;;;12.68;2.28;;;24.20;39.70;;;;;;5138647;27;20030;-42
2021/05/11 11:04:33;;;;;;;4.10;2.10;;;24.30;40.20;;;;;;5138302;27;20058;-40
2021/05/11 11:07:01;;;;;;;7.93;2.05;;;24.40;39.90;;;;;;5138341;27;20094;-41
2021/05/11 11:09:30;;;;;;;8.32;1.88;;;24.50;40.10;;;;;;5138111;27;20072;-40
2021/05/11 11:11:57;;;;;;;10.05;1.77;;;24.60;40.20;;;;;;5138513;27;20023;-40
2021/05/11 11:14:22;;;;;;;9.32;1.83;;;24.70;40.40;;;;;;5137758;27;20033;-41
2021/05/11 11:16:58;;;;;;;9.75;2.38;;;24.90;40.20;;;;;;5138259;27;20031;-40
2021/05/11 11:19:23;;;;;;;5.15;2.05;;;25.00;40.10;;;;;;5137826;27;20084;-40
2021/05/11 11:24:25;;;;;;;12.98;2.75;;;25.10;39.60;;;;;;5137204;27;20038;-40
2021/05/11 11:26:53;;;;;;;12.40;3.40;;;25.20;39.30;;;;;;5137680;27;20046;-40
2021/05/11 11:29:22;;;;;;;9.63;2.80;;;25.20;39.50;;;;;;5137507;27;20050;-41
2021/05/11 11:31:49;;;;;;;9.27;2.60;;;25.30;39.30;;;;;;5138677;27;20098;-40
2021/05/11 11:34:32;;;;;;;13.82;2.30;;;25.40;38.80;;;;;;5137988;27;20425;-40
2021/05/11 11:37:03;;;;;;;7.72;2.05;;;25.50;38.40;;;;;;5138064;27;20061;-40
2021/05/11 11:39:31;;;;;;;3.88;1.55;;;25.60;38.40;;;;;;5138286;27;20031;-40
2021/05/11 11:42:03;;;;;;;22.08;2.35;;;25.70;38.00;;;;;;5138205;27;20053;-41
2021/05/11 11:44:34;;;;;;;7.05;2.67;;;25.80;37.90;;;;;;5137930;27;20032;-42
2021/05/11 11:47:04;;;;;;;11.60;3.58;;;26.00;38.20;;;;;;5138366;27;20068;-42
2021/05/11 11:49:32;;;;;;;11.02;2.00;;;26.10;38.00;;;;;;5137838;27;20020;-40
2021/05/11 11:52:11;;;;;;;8.45;2.05;;;26.20;37.80;;;;;;5137231;27;20026;-40
2021/05/11 12:00:24;;;;;;;4.53;2.35;;;26.30;37.30;;;;;;5137755;27;20333;-40
2021/05/11 12:02:52;;;;;;;7.32;2.15;;;26.40;37.00;;;;;;5138137;27;20031;-40
2021/05/11 12:05:19;;;;;;;8.32;2.10;;;26.50;36.90;;;;;;5137296;27;20413;-40
2021/05/11 12:08:06;;;;;;;9.32;2.25;;;26.60;37.00;;;;;;5137905;27;20375;-41
2021/05/11 12:10:37;;;;;;;6.68;1.88;;;26.70;36.60;;;;;;5137596;27;20406;-41
2021/05/11 12:13:05;;;;;;;8.48;2.10;;;26.70;36.20;;;;;;5134239;27;20038;-41
2021/05/11 12:15:31;;;;;;;7.28;1.88;;;26.70;36.20;;;;;;5135780;27;20080;-40
2021/05/11 12:18:20;;;;;;;6.57;2.08;;;26.70;36.40;;;;;;5118943;27;20215;-40
2021/05/11 12:20:59;;;;;;;11.18;2.30;;;26.70;36.70;;;;;;5137114;27;20027;-41
2021/05/11 12:23:25;;;;;;;9.27;2.75;;;26.70;36.80;;;;;;5136814;27;20118;-40
2021/05/11 12:25:58;;;;;;;15.65;2.20;;;26.80;37.10;;;;;;5137174;27;20114;-41
2021/05/11 12:28:30;;;;;;;7.78;2.40;;;27.00;36.70;;;;;;5136859;27;20030;-42
2021/05/11 12:30:56;;;;;;;5.65;2.30;;;27.20;36.70;;;;;;5137442;27;20030;-40
2021/05/11 12:33:37;;;;;;;10.18;2.90;;;27.40;36.60;;;;;;5136496;27;20023;-41
2021/05/11 12:36:18;;;;;;;10.77;2.70;;;27.60;36.30;;;;;;5137262;27;20035;-40
2021/05/11 12:38:44;;;;;;;7.15;2.33;;;27.70;36.10;;;;;;5136824;27;20383;-40
2021/05/11 12:41:33;;;;;;;7.45;2.33;;;27.80;36.30;;;;;;5136812;27;20425;-40
2021/05/11 12:44:00;;;;;;;7.32;1.95;;;27.90;35.70;;;;;;5136304;27;20043;-40
2021/05/11 12:46:29;;;;;;;11.75;2.50;;;28.10;35.70;;;;;;5137170;27;20023;-40
2021/05/11 12:49:02;;;;;;;12.40;3.05;;;28.20;35.10;;;;;;5136580;27;20411;-41
2021/05/11 12:51:43;;;;;;;10.73;2.88;;;28.30;35.30;;;;;;5137056;27;20062;-40
2021/05/11 12:54:34;;;;;;;6.95;2.58;;;28.30;34.90;;;;;;5135791;27;20034;-41
2021/05/11 12:59:43;;;;;;;6.40;2.63;;;28.00;35.90;;;;;;5136343;27;20065;-41
2021/05/11 13:14:05;;;;;;;7.60;2.70;;;27.60;36.30;;;;;;5136148;27;20091;-41
2021/05/11 13:35:07;;;;;;;14.52;3.85;;;29.00;34.60;;;;;;5136673;28;20023;-41
2021/05/11 13:37:33;;;;;;;7.97;3.28;;;29.20;34.20;;;;;;5136331;28;20201;-40
2021/05/11 13:40:00;;;;;;;8.15;3.50;;;29.20;33.80;;;;;;5136396;28;20109;-41
2021/05/11 13:42:27;;;;;;;9.02;3.60;;;29.20;33.80;;;;;;5136553;28;20106;-40
2021/05/11 13:44:54;;;;;;;17.70;3.95;;;29.20;33.70;;;;;;5135825;28;20042;-42
2021/05/11 13:47:20;;;;;;;8.57;3.50;;;29.10;33.90;;;;;;5138101;27;20348;-40
2021/05/11 13:49:49;;;;;;;9.60;3.38;;;29.10;34.10;;;;;;5140243;27;20023;-40
2021/05/11 13:52:15;;;;;;;10.32;3.90;;;29.10;33.90;;;;;;5140741;27;20087;-40
2021/05/11 13:54:42;;;;;;;6.10;3.78;;;29.10;33.90;;;;;;5139224;27;20035;-41
2021/05/11 14:04:46;;;;;;;10.65;4.07;;;28.60;33.70;;;;;;5139692;27;20027;-40
2021/05/11 14:07:12;;;;;;;12.80;5.15;;;28.40;33.80;;;;;;5140096;27;20423;-40
2021/05/11 14:09:38;;;;;;;13.00;4.18;;;28.20;34.00;;;;;;5139602;27;20038;-40
2021/05/11 14:12:04;;;;;;;7.13;3.67;;;28.00;34.40;;;;;;5139922;27;20024;-41
2021/05/11 14:14:29;;;;;;;8.65;4.20;;;27.90;34.90;;;;;;5139398;27;20325;-40
2021/05/11 14:16:55;;;;;;;6.20;3.60;;;27.70;35.30;;;;;;5139812;27;20027;-39
2021/05/11 14:19:22;;;;;;;9.90;4.20;;;27.60;35.60;;;;;;5135564;27;20023;-40
2021/05/11 14:21:47;;;;;;;9.82;3.90;;;27.50;36.10;;;;;;5139552;27;20035;-40
2021/05/11 14:24:13;;;;;;;9.95;4.32;;;27.50;36.30;;;;;;5139265;27;20273;-40
2021/05/11 14:26:39;;;;;;;8.23;4.10;;;27.50;36.30;;;;;;5139909;27;20027;-41
2021/05/11 14:29:05;;;;;;;10.70;3.45;;;27.60;36.40;;;;;;5138973;27;20034;-41
2021/05/11 14:31:31;;;;;;;8.85;4.25;;;27.60;36.40;;;;;;5139798;27;20312;-41
2021/05/11 14:33:57;;;;;;;16.05;4.20;;;27.60;36.30;;;;;;5138848;27;20031;-40
2021/05/11 14:36:23;;;;;;;20.17;4.07;;;27.50;36.70;;;;;;5139631;27;20023;-42
2021/05/11 14:38:49;;;;;;;10.07;3.78;;;27.30;37.90;;;;;;5139260;27;20031;-40
2021/05/11 14:41:15;;;;;;;5.93;3.65;;;27.10;39.40;;;;;;5139407;27;20414;-40
2021/05/11 14:43:41;;;;;;;13.75;4.75;;;26.80;40.30;;;;;;5138831;27;20331;-39
2021/05/11 14:46:08;;;;;;;20.17;4.40;;;26.50;41.20;;;;;;5139348;27;20031;-39
2021/05/11 14:48:35;;;;;;;18.60;3.92;;;26.20;42.00;;;;;;5138633;27;20023;-39
2021/05/11 14:51:01;;;;;;;14.05;3.70;;;25.90;42.80;;;;;;5139277;27;20050;-39
2021/05/11 14:53:29;;;;;;;6.80;3.30;;;25.80;43.70;;;;;;5138541;27;20383;-39
2021/05/11 14:55:55;;;;;;;14.32;4.28;;;25.60;44.20;;;;;;5139084;27;20027;-39
2021/05/11 14:58:22;;;;;;;7.38;3.40;;;25.40;44.70;;;;;;5139064;27;20417;-39
2021/05/11 15:00:47;;;;;;;6.65;3.60;;;25.10;44.90;;;;;;5138751;27;20411;-40
2021/05/11 15:03:13;;;;;;;21.50;7.53;;;24.90;45.40;;;;;;5138942;27;20039;-39
2021/05/11 15:05:39;;;;;;;10.55;6.40;;;24.70;46.40;;;;;;5138948;27;20038;-40
2021/05/11 15:08:05;;;;;;;23.48;7.70;;;24.50;46.40;;;;;;5138926;27;20318;-39
2021/05/11 15:10:32;;;;;;;11.57;5.97;;;24.30;46.70;;;;;;5138485;27;20072;-39
2021/05/11 15:12:58;;;;;;;11.15;6.15;;;24.00;47.20;;;;;;5138869;27;20034;-40
2021/05/11 15:15:24;;;;;;;11.45;4.30;;;23.80;47.50;;;;;;5138317;27;20020;-39
2021/05/11 15:20:18;;;;;;;7.20;4.28;;;23.30;48.50;;;;;;5138325;27;20058;-40
2021/05/11 15:22:45;;;;;;;11.82;4.68;;;23.00;49.30;;;;;;5138382;27;20374;-39
2021/05/11 15:25:11;;;;;;;6.85;4.22;;;22.70;49.70;;;;;;5138419;27;20028;-40
2021/05/11 15:27:37;;;;;;;9.02;4.38;;;22.50;50.00;;;;;;5138390;27;20073;-39
2021/05/11 15:30:06;;;;;;;9.07;4.22;;;22.30;50.70;;;;;;5138424;27;20051;-40
2021/05/11 15:32:53;;;;;;;11.60;4.20;;;22.10;50.90;;;;;;5138383;27;20121;-39
2021/05/11 15:35:21;;;;;;;11.80;4.10;;;22.00;51.50;;;;;;5138225;27;20028;-39
2021/05/11 15:37:52;;;;;;;8.82;3.88;;;21.80;51.50;;;;;;5138156;27;20061;-40
2021/05/11 15:40:18;;;;;;;14.27;6.60;;;21.60;51.60;;;;;;5138312;27;20031;-40
2021/05/11 15:42:44;;;;;;;12.40;6.43;;;21.50;51.80;;;;;;5134711;27;20035;-40
2021/05/11 15:45:10;;;;;;;13.07;5.68;;;21.40;52.00;;;;;;5137921;27;20037;-40
2021/05/11 15:47:52;;;;;;;9.80;6.43;;;21.30;52.20;;;;;;5137750;27;20024;-40
2021/05/11 15:50:28;;;;;;;11.68;5.18;;;21.20;52.20;;;;;;5119483;27;20410;-39
2021/05/11 15:53:02;;;;;;;12.98;5.40;;;21.10;52.50;;;;;;5137225;27;20024;-39
2021/05/11 15:55:30;;;;;;;11.65;5.80;;;21.00;52.70;;;;;;5137593;27;20318;-39
2021/05/11 15:57:56;;;;;;;14.68;6.50;;;21.00;52.70;;;;;;5137827;27;20063;-39
2021/05/11 16:00:22;;;;;;;10.38;5.63;;;20.90;52.80;;;;;;5137741;27;20042;-39
2021/05/11 16:02:48;;;;;;;9.82;4.97;;;20.80;53.00;;;;;;5137680;27;20035;-39
2021/05/11 16:05:16;;;;;;;10.35;6.22;;;20.80;53.20;;;;;;5137526;27;20032;-40
2021/05/11 16:07:42;;;;;;;7.55;4.65;;;20.70;53.30;;;;;;5137364;27;20248;-41
2021/05/11 16:10:09;;;;;;;12.20;5.68;;;20.60;53.20;;;;;;5137035;27;20031;-39
2021/05/11 16:12:36;;;;;;;12.13;6.65;;;20.60;53.40;;;;;;5137605;27;20031;-39
2021/05/11 16:15:11;;;;;;;8.27;5.07;;;20.50;53.80;;;;;;5137164;27;20049;-39
2021/05/11 16:17:37;;;;;;;9.02;5.40;;;20.50;53.70;;;;;;5137278;27;20338;-39
2021/05/11 16:20:05;;;;;;;7.82;4.85;;;20.40;53.60;;;;;;5137383;27;20031;-39
2021/05/11 16:22:31;;;;;;;11.75;5.15;;;20.40;53.70;;;;;;5137484;27;20027;-40
2021/05/11 16:24:57;;;;;;;10.43;6.50;;;20.40;53.80;;;;;;5137369;27;20077;-39
2021/05/11 16:27:23;;;;;;;6.90;5.10;;;20.40;54.00;;;;;;5137548;27;20023;-40
2021/05/11 16:29:49;;;;;;;9.00;5.30;;;20.30;54.10;;;;;;5137188;27;20031;-40
2021/05/11 16:32:15;;;;;;;13.15;6.97;;;20.30;54.10;;;;;;5137612;27;20102;-40
2021/05/11 16:34:41;;;;;;;9.55;6.13;;;20.20;54.00;;;;;;5137059;27;20126;-39
2021/05/11 16:37:08;;;;;;;9.68;6.25;;;20.20;54.10;;;;;;5137124;27;20069;-39
2021/05/11 16:39:34;;;;;;;9.55;7.25;;;20.10;54.20;;;;;;5136766;27;20023;-39
2021/05/11 16:42:01;;;;;;;9.13;5.43;;;20.10;54.30;;;;;;5137125;27;20081;-40
2021/05/11 16:44:26;;;;;;;10.35;6.43;;;20.00;54.60;;;;;;5136233;27;20112;-40
2021/05/11 16:46:52;;;;;;;9.73;6.20;;;20.00;54.60;;;;;;5136818;27;20035;-40
2021/05/11 16:49:18;;;;;;;10.48;4.97;;;19.90;54.80;;;;;;5136553;27;20071;-39
2021/05/11 16:51:44;;;;;;;10.27;5.22;;;19.90;54.90;;;;;;5137058;27;20079;-40
2021/05/11 16:54:10;;;;;;;7.88;5.63;;;19.90;55.30;;;;;;5136420;27;20102;-40
2021/05/11 16:56:36;;;;;;;7.78;4.90;;;19.90;55.40;;;;;;5137389;27;20038;-39
2021/05/11 16:59:03;;;;;;;6.97;4.88;;;19.80;55.60;;;;;;5136950;27;20027;-39
2021/05/11 17:01:29;;;;;;;6.13;4.85;;;19.80;55.70;;;;;;5136866;27;20038;-39
2021/05/11 17:03:55;;;;;;;7.50;5.20;;;19.70;55.80;;;;;;5136694;27;20019;-40
2021/05/11 17:06:20;;;;;;;9.07;4.68;;;19.70;56.00;;;;;;5137213;27;20046;-40
2021/05/11 17:08:46;;;;;;;9.27;4.57;;;19.70;56.30;;;;;;5118325;28;20019;-40
2021/05/11 17:11:12;;;;;;;9.85;5.18;;;19.60;56.40;;;;;;5136712;27;20023;-40
2021/05/11 17:13:39;;;;;;;12.57;5.28;;;19.60;56.50;;;;;;5136652;27;20462;-39
2021/05/11 17:16:09;;;;;;;8.65;5.57;;;19.50;56.70;;;;;;5137220;27;20035;-40